Time;durP1;ratioP1;P1;durP2;ratioP2;P2;SDS_P1;SDS_P2;PMS_P1;PMS_P2;Temp;Humidity;BMP_temperature;BMP_pressure;BME280_temperature;BME280_humidity;BME280_pressure;Samples;Min_cycle;Max_cycle;Signal;HPM_P1;HPM_P2
2022/09/11 00:01:14;;;;;;;9.85;4.35;;;;;;;9.66;53.86;100091.63;4994237;28;20050;-67
2022/09/11 00:03:42;;;;;;;10.57;5.38;;;;;;;9.62;53.89;100087.81;4994565;28;20532;-67
2022/09/11 00:06:12;;;;;;;7.30;4.00;;;;;;;9.60;53.69;100087.31;4995873;28;20049;-66
2022/09/11 00:08:41;;;;;;;8.85;4.57;;;;;;;9.58;54.24;100089.56;4995442;28;20051;-69
2022/09/11 00:11:16;;;;;;;18.65;4.75;;;;;;;9.57;54.07;100092.66;4995242;28;20050;-69
2022/09/11 00:13:46;;;;;;;14.90;4.50;;;;;;;9.57;54.09;100087.09;4995290;28;20050;-69
2022/09/11 00:16:22;;;;;;;15.30;5.63;;;;;;;9.56;54.68;100089.06;5007096;28;20046;-69
2022/09/11 00:18:50;;;;;;;10.35;5.00;;;;;;;9.53;54.66;100094.44;5015307;28;20497;-69
2022/09/11 00:21:17;;;;;;;10.93;4.95;;;;;;;9.50;54.04;100092.28;5015101;28;20085;-69
2022/09/11 00:23:44;;;;;;;13.52;5.05;;;;;;;9.46;55.06;100091.25;5013720;28;20054;-69
2022/09/11 00:26:13;;;;;;;17.95;5.50;;;;;;;9.47;54.68;100090.13;5014829;28;20042;-69
2022/09/11 00:28:40;;;;;;;9.55;4.65;;;;;;;9.44;54.73;100087.97;5014837;28;20120;-69
2022/09/11 00:31:16;;;;;;;10.63;4.95;;;;;;;9.40;54.68;100087.75;5014727;28;20057;-69
2022/09/11 00:33:43;;;;;;;11.23;4.97;;;;;;;9.40;54.93;100087.75;5014805;28;20144;-69
2022/09/11 00:36:20;;;;;;;16.00;5.32;;;;;;;9.44;54.90;100087.97;5014333;28;20057;-69
2022/09/11 00:38:49;;;;;;;12.73;5.18;;;;;;;9.43;54.89;100089.09;5014665;28;20049;-68
2022/09/11 00:41:22;;;;;;;11.55;4.93;;;;;;;9.40;54.85;100087.75;5014516;28;20567;-69
2022/09/11 00:43:54;;;;;;;12.60;5.50;;;;;;;9.38;55.17;100090.03;5005878;28;20046;-68
2022/09/11 00:46:25;;;;;;;15.10;6.03;;;;;;;9.35;54.90;100085.09;4994849;28;20046;-67
2022/09/11 00:48:54;;;;;;;18.73;5.75;;;;;;;9.33;55.08;100088.19;4995147;28;20086;-67
2022/09/11 00:51:25;;;;;;;17.50;5.93;;;;;;;9.32;54.94;100092.09;4994659;28;20111;-68
2022/09/11 00:53:55;;;;;;;17.60;6.68;;;;;;;9.27;55.53;100085.84;4995090;28;20285;-68
2022/09/11 00:56:28;;;;;;;14.63;5.45;;;;;;;9.26;54.91;100087.78;4994513;28;20042;-68
2022/09/11 00:58:56;;;;;;;12.40;5.40;;;;;;;9.23;55.36;100088.41;4994423;28;20473;-68
2022/09/11 01:01:23;;;;;;;10.93;5.53;;;;;;;9.22;55.40;100092.34;4994583;28;20145;-68
2022/09/11 01:03:50;;;;;;;31.35;12.05;;;;;;;9.32;55.13;100092.09;4994677;28;20061;-68
2022/09/11 01:06:19;;;;;;;15.05;6.28;;;;;;;9.36;54.83;100083.97;5011460;28;20056;-68
2022/09/11 01:08:46;;;;;;;13.25;6.50;;;;;;;9.38;54.96;100078.13;5014107;28;20046;-69
2022/09/11 01:11:34;;;;;;;12.20;5.60;;;;;;;9.39;54.68;100085.31;5014097;28;20099;-68
2022/09/11 01:14:07;;;;;;;17.65;5.15;;;;;;;9.50;54.78;100089.50;5013693;28;20429;-67
2022/09/11 01:16:42;;;;;;;12.85;5.38;;;;;;;9.54;54.46;100093.28;5027932;28;20497;-68
2022/09/11 01:19:24;;;;;;;13.80;5.63;;;;;;;9.60;54.31;100092.03;5033346;28;20155;-68
2022/09/11 01:22:30;;;;;;;12.27;6.03;;;;;;;9.67;53.61;100097.97;5033511;28;20053;-68
2022/09/11 01:25:18;;;;;;;12.85;6.00;;;;;;;9.63;54.18;100085.84;5033860;28;20053;-69
2022/09/11 01:27:53;;;;;;;13.45;5.22;;;;;;;9.68;53.96;100074.63;5033199;28;20052;-69
2022/09/11 01:30:33;;;;;;;12.95;5.40;;;;;;;9.81;52.85;100077.38;5033440;28;20072;-69
2022/09/11 01:33:23;;;;;;;8.57;4.63;;;;;;;9.90;52.55;100074.66;5033152;28;20057;-71
2022/09/11 01:36:02;;;;;;;;;;;;;;;9.94;51.95;100075.66;5033374;28;20115;-72
2022/09/11 01:38:39;;;;;;;18.45;4.70;;;;;;;10.02;51.58;100069.34;5033053;28;19931;-72
2022/09/11 01:41:26;;;;;;;12.98;4.85;;;;;;;9.99;51.58;100072.75;5033209;28;20045;-72
2022/09/11 01:44:03;;;;;;;11.25;4.93;;;;;;;9.94;52.17;100072.88;5033580;28;20045;-71
2022/09/11 01:46:43;;;;;;;8.10;4.15;;;;;;;9.91;52.41;100076.28;5033248;28;20087;-71
2022/09/11 01:49:16;;;;;;;10.57;4.47;;;;;;;9.91;52.40;100071.53;5033133;28;20053;-71
2022/09/11 01:51:47;;;;;;;8.65;3.40;;;;;;;9.92;52.06;100069.59;5032638;28;20060;-72
2022/09/11 01:54:18;;;;;;;6.50;3.08;;;;;;;10.05;50.62;100065.91;5016533;28;20057;-73
2022/09/11 01:56:54;;;;;;;9.73;4.55;;;;;;;10.08;50.72;100055.03;5012914;28;20101;-70
2022/09/11 01:59:30;;;;;;;14.65;4.55;;;;;;;10.09;50.09;100058.63;5013168;28;20115;-72
2022/09/11 02:02:06;;;;;;;15.40;4.28;;;;;;;10.00;50.36;100060.47;5013132;28;20509;-70
2022/09/11 02:04:39;;;;;;;10.90;4.60;;;;;;;9.89;51.08;100064.66;5010017;28;20046;-70
2022/09/11 02:07:34;;;;;;;11.98;5.22;;;;;;;9.80;52.08;100052.66;4993554;28;20449;-71
2022/09/11 02:10:28;;;;;;;9.05;4.10;;;;;;;9.72;51.66;100061.75;4992626;28;20062;-71
2022/09/11 02:13:09;;;;;;;9.35;4.13;;;;;;;9.65;51.95;100061.38;4992980;28;20058;-72
2022/09/11 02:15:43;;;;;;;10.27;4.28;;;;;;;9.62;52.58;100062.81;4998548;28;20080;-71
2022/09/11 02:18:23;;;;;;;10.02;3.88;;;;;;;9.58;52.42;100061.81;5011490;28;20045;-68
2022/09/11 02:20:51;;;;;;;;;;;;;;;9.45;52.42;100067.41;5013440;28;20053;-66
2022/09/11 02:23:19;;;;;;;8.77;3.42;;;;;;;9.42;52.83;100068.84;5012888;28;19925;-66
2022/09/11 02:25:47;;;;;;;8.70;4.18;;;;;;;9.41;52.40;100064.41;5012629;28;20072;-67
2022/09/11 02:28:13;;;;;;;9.48;3.80;;;;;;;9.38;52.96;100061.47;5012847;28;20092;-66
2022/09/11 02:30:41;;;;;;;8.10;3.88;;;;;;;9.34;52.83;100072.34;5013164;28;20104;-65
2022/09/11 02:33:30;;;;;;;7.53;3.70;;;;;;;9.27;52.94;100064.44;5013087;28;20054;-66
2022/09/11 02:36:19;;;;;;;8.05;4.43;;;;;;;9.22;53.15;100064.56;5012607;28;20057;-65
2022/09/11 02:39:01;;;;;;;10.90;4.70;;;;;;;9.20;53.25;100060.44;5012533;28;20049;-67
2022/09/11 02:41:57;;;;;;;10.02;4.15;;;;;;;9.17;53.48;100063.84;5012668;28;20050;-68
2022/09/11 02:44:55;;;;;;;8.60;3.90;;;;;;;9.12;53.51;100064.78;4972466;28;20070;-68
2022/09/11 02:47:22;;;;;;;13.65;3.58;;;;;;;9.10;53.81;100061.50;4996796;28;20042;-68
2022/09/11 02:50:21;;;;;;;8.55;3.75;;;;;;;9.12;53.78;100064.78;4996818;28;20105;-68
2022/09/11 02:53:27;;;;;;;7.65;3.47;;;;;;;9.11;54.13;100065.91;4996644;28;20096;-69
2022/09/11 02:55:59;;;;;;;7.60;3.63;;;;;;;9.04;53.66;100057.19;4997096;28;20449;-69
2022/09/11 02:58:41;;;;;;;8.55;3.92;;;;;;;9.03;53.59;100061.09;5002191;28;20096;-69
2022/09/11 03:01:09;;;;;;;10.48;3.28;;;;;;;9.02;54.11;100053.06;5016146;28;20053;-67
2022/09/11 03:03:42;;;;;;;7.10;3.17;;;;;;;9.02;53.88;100053.91;5015239;28;20053;-68
2022/09/11 03:06:16;;;;;;;6.85;3.30;;;;;;;8.97;53.84;100056.78;5015962;28;20062;-69
2022/09/11 03:08:43;;;;;;;7.07;3.70;;;;;;;8.93;54.04;100061.31;5016831;28;20054;-67
2022/09/11 03:11:10;;;;;;;8.02;3.47;;;;;;;8.92;54.41;100054.09;5016743;28;20052;-68
2022/09/11 03:13:37;;;;;;;6.97;3.38;;;;;;;8.89;54.42;100049.16;5014702;28;20076;-69
2022/09/11 03:16:04;;;;;;;7.78;3.47;;;;;;;8.92;54.19;100053.28;5015966;28;20612;-69
2022/09/11 03:18:32;;;;;;;10.38;3.80;;;;;;;8.90;54.49;100048.06;5016390;28;20391;-69
2022/09/11 03:20:59;;;;;;;9.95;4.25;;;;;;;8.92;54.78;100051.31;5016253;28;20069;-66
2022/09/11 03:23:27;;;;;;;8.38;3.95;;;;;;;8.94;54.51;100046.28;5016032;28;20060;-67
2022/09/11 03:25:54;;;;;;;7.13;3.40;;;;;;;8.98;54.59;100047.34;5014500;28;20054;-66
2022/09/11 03:28:22;;;;;;;11.63;3.67;;;;;;;9.00;54.56;100042.28;5016245;28;20050;-66
2022/09/11 03:30:51;;;;;;;14.65;4.22;;;;;;;9.01;55.18;100046.72;5015640;28;20046;-65
2022/09/11 03:33:18;;;;;;;11.03;3.50;;;;;;;8.99;54.90;100042.59;5015505;28;20420;-65
2022/09/11 03:35:46;;;;;;;6.88;3.88;;;;;;;9.01;55.30;100040.34;5016033;28;20084;-65
2022/09/11 03:38:12;;;;;;;7.72;3.83;;;;;;;9.05;55.36;100027.47;5015369;28;20508;-66
2022/09/11 03:40:42;;;;;;;10.20;3.83;;;;;;;9.11;54.82;100029.84;5015472;28;20053;-66
2022/09/11 03:43:11;;;;;;;10.48;4.10;;;;;;;9.12;55.42;100031.47;5012183;28;20050;-65
2022/09/11 03:45:38;;;;;;;8.45;3.67;;;;;;;9.14;55.33;100034.75;4995173;28;20105;-66
2022/09/11 03:48:05;;;;;;;14.73;3.47;;;;;;;9.18;54.91;100030.22;5012211;28;20045;-65
2022/09/11 03:50:33;;;;;;;7.70;3.35;;;;;;;9.19;55.54;100028.28;5015261;28;20045;-72
2022/09/11 03:52:59;;;;;;;8.45;3.70;;;;;;;9.22;55.03;100022.94;5015367;28;20575;-71
2022/09/11 03:55:27;;;;;;;6.07;3.42;;;;;;;9.25;55.81;100025.09;5015483;28;20462;-72
2022/09/11 03:57:54;;;;;;;9.60;3.25;;;;;;;9.32;55.32;100025.47;5014466;28;20085;-72
2022/09/11 04:00:21;;;;;;;7.32;3.63;;;;;;;9.40;55.22;100025.84;5015420;28;20104;-71
2022/09/11 04:02:48;;;;;;;6.82;3.60;;;;;;;9.48;55.24;100034.28;5015118;28;20513;-72
2022/09/11 04:05:16;;;;;;;7.28;3.70;;;;;;;9.56;54.67;100022.41;5015122;28;20054;-72
2022/09/11 04:07:43;;;;;;;11.20;3.20;;;;;;;9.64;55.00;100026.38;5014914;28;20049;-73
2022/09/11 04:10:10;;;;;;;8.13;3.47;;;;;;;9.74;54.86;100026.16;5014981;28;20050;-71
2022/09/11 04:12:37;;;;;;;8.15;4.00;;;;;;;9.83;55.03;100025.06;5014824;28;20050;-71
2022/09/11 04:15:04;;;;;;;6.85;3.83;;;;;;;9.96;54.60;100028.91;5014662;28;20053;-71
2022/09/11 04:17:31;;;;;;;7.05;3.30;;;;;;;10.01;54.42;100031.56;5014868;28;20042;-71
2022/09/11 04:19:58;;;;;;;9.55;4.32;;;;;;;10.10;54.29;100035.25;5014791;28;20100;-72
2022/09/11 04:22:25;;;;;;;8.18;4.20;;;;;;;10.21;54.31;100031.88;5014877;28;20049;-66
2022/09/11 04:24:52;;;;;;;11.60;4.93;;;;;;;10.35;53.36;100037.34;5015112;28;20046;-66
2022/09/11 04:27:20;;;;;;;15.77;4.45;;;;;;;10.40;53.51;100031.66;5014715;28;20421;-66
2022/09/11 04:29:46;;;;;;;12.45;4.18;;;;;;;10.49;53.70;100026.97;5014727;28;20119;-66
2022/09/11 04:32:13;;;;;;;10.85;3.97;;;;;;;10.49;54.38;100027.78;5014525;28;20057;-66
2022/09/11 04:34:40;;;;;;;10.13;4.90;;;;;;;10.55;53.73;100031.25;5015020;28;20180;-66
2022/09/11 04:37:07;;;;;;;10.63;4.13;;;;;;;10.65;53.68;100028.16;5013160;28;20465;-66
2022/09/11 04:39:34;;;;;;;8.20;4.03;;;;;;;10.72;53.94;100037.69;5014569;28;20054;-72
2022/09/11 04:42:03;;;;;;;9.63;3.63;;;;;;;10.77;53.87;100032.00;5014480;28;20402;-69
2022/09/11 04:44:31;;;;;;;7.95;4.25;;;;;;;10.87;53.51;100030.88;5014465;28;20050;-68
2022/09/11 04:46:58;;;;;;;10.73;4.28;;;;;;;11.00;53.47;100027.16;5014401;28;20047;-69
2022/09/11 04:49:25;;;;;;;13.05;4.72;;;;;;;11.14;52.19;100036.19;5014219;28;20045;-68
2022/09/11 04:51:52;;;;;;;14.77;5.25;;;;;;;11.28;51.21;100022.94;5014313;28;20045;-68
2022/09/11 04:54:22;;;;;;;15.15;4.50;;;;;;;11.41;49.86;100027.56;5014650;28;20050;-68
2022/09/11 04:56:49;;;;;;;13.43;4.95;;;;;;;11.51;49.51;100018.88;5013968;28;20049;-67
2022/09/11 04:59:21;;;;;;;11.00;5.05;;;;;;;11.60;49.59;100019.69;5013951;28;20050;-69
2022/09/11 05:01:48;;;;;;;13.70;4.53;;;;;;;11.67;49.12;100031.22;5012573;28;20053;-68
2022/09/11 05:04:17;;;;;;;17.40;4.78;;;;;;;11.79;49.11;100027.75;5014145;28;20136;-69
2022/09/11 05:06:59;;;;;;;;;;;;;;;;;;;;;
2022/09/11 05:09:26;;;;;;;17.88;5.25;;;;;;;11.92;48.17;100022.00;4993778;28;20058;-69
2022/09/11 05:11:53;;;;;;;12.25;4.10;;;;;;;11.98;48.12;100019.84;4994178;28;20572;-69
2022/09/11 05:14:20;;;;;;;14.65;4.80;;;;;;;12.06;47.59;100028.22;4994388;28;20120;-69
2022/09/11 05:16:47;;;;;;;20.33;4.32;;;;;;;12.13;47.27;100028.53;5010265;28;20519;-68
2022/09/11 05:19:14;;;;;;;16.05;5.28;;;;;;;12.22;46.82;100026.53;5014200;28;20050;-68
2022/09/11 05:21:41;;;;;;;15.02;4.22;;;;;;;12.31;47.16;100024.53;5013559;28;20070;-69
2022/09/11 05:24:08;;;;;;;9.32;4.13;;;;;;;12.40;46.84;100024.50;5013887;28;20054;-69
2022/09/11 05:26:36;;;;;;;15.35;4.53;;;;;;;12.53;46.42;100021.50;5013740;28;20049;-69
2022/09/11 05:29:08;;;;;;;23.52;4.35;;;;;;;12.61;46.26;100023.47;5013812;28;20054;-69
2022/09/11 05:31:36;;;;;;;11.95;4.28;;;;;;;12.72;46.40;100023.91;5012516;28;20053;-69
2022/09/11 05:34:03;;;;;;;16.33;4.13;;;;;;;12.87;46.02;100026.97;5013636;28;20421;-69
2022/09/11 05:36:31;;;;;;;12.32;3.70;;;;;;;13.02;45.48;100031.19;5013540;28;20046;-69
2022/09/11 05:38:59;;;;;;;10.55;4.47;;;;;;;13.18;45.09;100023.88;5013295;28;20049;-68
2022/09/11 05:41:27;;;;;;;8.70;2.85;;;;;;;13.29;44.40;100021.50;5013682;28;20096;-69
2022/09/11 05:43:53;;;;;;;13.80;3.30;;;;;;;13.43;44.28;100022.88;5013407;28;20417;-69
2022/09/11 05:46:21;;;;;;;11.80;2.78;;;;;;;13.66;43.75;100015.78;5013628;28;20137;-69
2022/09/11 05:48:47;;;;;;;12.50;2.65;;;;;;;13.95;42.56;100017.66;5013122;28;20573;-69
2022/09/11 05:51:18;;;;;;;6.07;3.25;;;;;;;14.15;42.19;100016.81;5013697;28;20053;-69
2022/09/11 05:53:45;;;;;;;10.15;3.15;;;;;;;14.43;41.93;100023.44;5001566;28;20058;-72
2022/09/11 05:56:18;;;;;;;7.18;2.25;;;;;;;14.64;41.21;100021.38;4993650;28;20061;-71
2022/09/11 05:58:46;;;;;;;5.72;2.47;;;;;;;15.36;40.17;100012.97;4993563;28;20089;-72
2022/09/11 06:01:19;;;;;;;11.88;2.55;;;;;;;16.44;37.77;100004.19;4993517;28;20109;-73
2022/09/11 06:03:48;;;;;;;11.07;3.05;;;;;;;16.48;37.50;100004.28;4993235;28;20141;-71
2022/09/11 06:06:17;;;;;;;8.63;2.80;;;;;;;16.48;37.78;100009.06;4993699;28;20513;-73
2022/09/11 06:08:45;;;;;;;9.82;2.58;;;;;;;17.21;36.45;100004.53;4992755;28;20081;-71
2022/09/11 06:11:14;;;;;;;4.60;2.45;;;;;;;18.25;34.38;100005.25;4993076;28;20077;-71
2022/09/11 06:13:42;;;;;;;6.00;2.67;;;;;;;18.24;34.73;100000.81;4992922;28;20497;-71
2022/09/11 06:16:11;;;;;;;12.10;2.88;;;;;;;17.82;35.23;99999.94;5004635;28;20514;-70
2022/09/11 06:18:47;;;;;;;8.48;3.22;;;;;;;17.63;35.23;99994.31;5013051;28;20042;-71
2022/09/11 06:21:20;;;;;;;5.60;2.45;;;;;;;17.21;35.93;100007.34;5012368;28;20050;-69
2022/09/11 06:23:49;;;;;;;4.53;2.38;;;;;;;16.88;36.49;100006.94;5012875;28;20453;-70
2022/09/11 06:26:20;;;;;;;9.55;2.65;;;;;;;17.07;35.99;100004.19;5012988;28;20050;-69
2022/09/11 06:28:47;;;;;;;4.72;2.35;;;;;;;17.62;35.17;100001.13;5012606;28;20076;-70
2022/09/11 06:31:20;;;;;;;5.15;2.65;;;;;;;18.42;33.93;99998.38;5012875;28;20064;-69
2022/09/11 06:33:48;;;;;;;4.22;2.10;;;;;;;18.95;33.11;100003.75;5012807;28;20069;-70
2022/09/11 06:36:17;;;;;;;4.15;2.10;;;;;;;19.06;32.65;99999.13;5012427;28;20053;-69
2022/09/11 06:38:44;;;;;;;5.07;2.20;;;;;;;18.42;33.57;99995.56;5012892;28;20107;-71
2022/09/11 06:41:13;;;;;;;7.85;2.42;;;;;;;17.85;34.16;99994.38;5012625;28;20049;-70
2022/09/11 06:43:41;;;;;;;7.00;2.30;;;;;;;17.43;34.83;99995.41;4996690;28;20046;-70
2022/09/11 06:46:14;;;;;;;5.35;2.30;;;;;;;17.16;35.39;99990.75;4993257;28;20050;-71
2022/09/11 06:48:42;;;;;;;9.23;2.30;;;;;;;17.01;34.91;99995.22;4993389;28;20072;-69
2022/09/11 06:51:16;;;;;;;4.57;2.30;;;;;;;16.80;34.97;99988.25;4992804;28;20112;-70
2022/09/11 06:53:44;;;;;;;7.70;2.58;;;;;;;16.72;35.34;99980.84;4993075;28;20062;-69
2022/09/11 06:56:13;;;;;;;7.03;2.22;;;;;;;16.78;35.21;99985.81;4992972;28;20556;-69
2022/09/11 06:58:40;;;;;;;8.68;2.85;;;;;;;16.76;35.29;99988.19;5001395;28;20402;-68
2022/09/11 07:01:12;;;;;;;11.40;3.05;;;;;;;16.84;35.13;99977.94;5012203;28;20046;-69
2022/09/11 07:03:46;;;;;;;9.32;3.00;;;;;;;16.63;35.53;99978.19;5012293;28;20076;-69
2022/09/11 07:06:17;;;;;;;8.15;2.90;;;;;;;16.55;35.62;99992.44;5012386;28;20058;-70
2022/09/11 07:08:51;;;;;;;5.70;2.50;;;;;;;16.54;36.08;99990.78;5012550;28;20054;-69
2022/09/11 07:11:19;;;;;;;5.57;2.72;;;;;;;16.55;35.74;99993.22;5012184;28;20513;-68
2022/09/11 07:13:46;;;;;;;5.95;2.47;;;;;;;16.52;35.72;99998.78;5012220;28;20054;-70
2022/09/11 07:16:13;;;;;;;4.35;2.60;;;;;;;16.44;35.55;99992.94;5012462;28;20499;-69
2022/09/11 07:18:42;;;;;;;9.00;3.53;;;;;;;16.40;35.53;99986.41;5010897;28;20145;-69
2022/09/11 07:21:12;;;;;;;8.32;2.50;;;;;;;16.42;35.26;99986.03;5012551;28;20058;-69
2022/09/11 07:23:40;;;;;;;9.05;2.78;;;;;;;16.52;35.37;99979.91;5012658;28;20045;-69
2022/09/11 07:26:10;;;;;;;5.47;2.67;;;;;;;16.61;35.30;99988.19;5012436;28;20118;-70
2022/09/11 07:28:38;;;;;;;4.70;2.20;;;;;;;16.67;35.05;99979.09;5012024;28;20073;-69
2022/09/11 07:31:19;;;;;;;7.10;2.70;;;;;;;16.78;34.71;99985.81;5012241;28;20046;-69
2022/09/11 07:33:48;;;;;;;7.95;2.60;;;;;;;17.08;34.46;99972.13;5013358;28;20058;-69
2022/09/11 07:36:18;;;;;;;5.65;2.70;;;;;;;17.62;33.36;99964.53;5016100;28;20076;-69
2022/09/11 07:38:46;;;;;;;;;;;;;;;18.15;33.01;99960.81;5017139;28;20052;-70
2022/09/11 07:41:15;;;;;;;5.32;2.22;;;;;;;18.54;32.21;99961.56;5016014;28;20033;-70
2022/09/11 07:43:45;;;;;;;8.60;2.65;;;;;;;18.59;32.23;99962.06;5015497;28;20050;-69
2022/09/11 07:46:13;;;;;;;7.72;2.45;;;;;;;18.50;32.84;99955.06;5014165;28;20474;-72
2022/09/11 07:48:44;;;;;;;9.65;2.67;;;;;;;18.35;32.93;99959.56;5015513;28;20084;-70
2022/09/11 07:51:14;;;;;;;11.77;2.72;;;;;;;18.17;32.92;99953.63;5015710;28;20049;-70
2022/09/11 07:53:46;;;;;;;6.00;2.55;;;;;;;18.15;33.02;99947.53;5014194;28;20081;-71
2022/09/11 07:56:16;;;;;;;6.53;2.63;;;;;;;18.20;32.85;99946.41;5015516;28;20061;-70
2022/09/11 07:58:44;;;;;;;3.80;2.30;;;;;;;17.99;33.02;99941.19;5015378;28;20112;-71
2022/09/11 08:01:17;;;;;;;10.07;2.70;;;;;;;18.00;33.01;99947.66;5015488;28;20521;-72
2022/09/11 08:03:44;;;;;;;6.88;2.75;;;;;;;18.34;32.61;99946.69;5015644;28;20049;-73
2022/09/11 08:06:18;;;;;;;4.30;2.50;;;;;;;18.84;32.41;99948.41;4996388;28;20498;-72
2022/09/11 08:08:59;;;;;;;6.25;2.90;;;;;;;18.99;31.83;99938.97;4995874;28;20045;-71
2022/09/11 08:11:27;;;;;;;6.90;2.67;;;;;;;18.89;32.09;99946.06;4995224;28;20050;-71
2022/09/11 08:13:55;;;;;;;5.65;2.28;;;;;;;18.81;32.17;99947.16;4995474;28;20391;-73
2022/09/11 08:16:26;;;;;;;10.70;2.88;;;;;;;18.55;32.18;99935.84;5007714;28;20560;-73
2022/09/11 08:18:54;;;;;;;14.25;3.35;;;;;;;18.65;32.32;99935.19;5015259;28;20046;-73
2022/09/11 08:21:21;;;;;;;6.18;2.55;;;;;;;19.07;32.07;99935.88;5015236;28;20088;-71
2022/09/11 08:23:49;;;;;;;6.55;2.70;;;;;;;19.70;30.88;99927.53;5014737;28;20089;-72
2022/09/11 08:26:20;;;;;;;6.15;2.22;;;;;;;21.33;28.47;99923.06;5014874;28;20452;-71
2022/09/11 08:28:49;;;;;;;6.10;1.98;;;;;;;23.40;25.46;99929.22;5015027;28;20485;-71
2022/09/11 08:31:18;;;;;;;4.87;2.07;;;;;;;25.17;22.93;99913.59;5015333;28;20049;-73
2022/09/11 08:33:48;;;;;;;8.88;2.53;;;;;;;26.19;21.96;99913.22;5014936;28;20060;-73
2022/09/11 08:36:15;;;;;;;6.60;2.40;;;;;;;26.03;21.93;99926.50;5014539;28;20049;-72
2022/09/11 08:38:43;;;;;;;7.20;2.75;;;;;;;26.53;20.94;99925.34;5014773;28;20104;-72
2022/09/11 08:41:21;;;;;;;3.38;2.20;;;;;;;27.09;20.56;99915.09;5004901;28;20585;-72
2022/09/11 08:43:55;;;;;;;5.88;2.00;;;;;;;27.63;19.83;99910.81;4994722;28;20104;-71
2022/09/11 08:46:25;;;;;;;6.90;1.95;;;;;;;27.83;19.43;99905.13;4995221;28;20057;-71
2022/09/11 08:49:05;;;;;;;6.38;2.35;;;;;;;28.53;18.65;99899.94;5011811;28;20053;-72
2022/09/11 08:51:33;;;;;;;6.38;2.25;;;;;;;28.92;18.07;99908.38;5014077;28;20045;-72
2022/09/11 08:54:01;;;;;;;4.60;2.00;;;;;;;28.43;17.82;99904.63;5014370;28;20045;-72
2022/09/11 08:56:35;;;;;;;7.07;3.00;;;;;;;28.53;18.08;99903.59;5013002;28;20050;-71
2022/09/11 08:59:22;;;;;;;10.77;3.88;;;;;;;29.15;16.91;99903.28;5014527;28;20050;-70
2022/09/11 09:02:30;;;;;;;13.90;2.47;;;;;;;28.74;17.07;99894.47;5014447;28;20445;-69
2022/09/11 09:05:14;;;;;;;10.70;2.80;;;;;;;28.63;17.32;99911.13;5011375;28;20062;-69
2022/09/11 09:07:56;;;;;;;7.32;2.70;;;;;;;28.58;17.23;99911.66;5013734;28;20049;-69
2022/09/11 09:10:36;;;;;;;9.40;2.60;;;;;;;28.42;17.63;99889.50;5014092;28;20058;-70
2022/09/11 09:13:36;;;;;;;13.48;2.58;;;;;;;30.24;16.17;99902.25;5013548;28;20112;-72
2022/09/11 09:16:21;;;;;;;3.85;1.83;;;;;;;30.98;15.83;99892.84;4992770;28;20070;-71
2022/09/11 09:19:20;;;;;;;7.38;1.85;;;;;;;31.51;15.05;99885.25;4994569;28;20046;-72
2022/09/11 09:22:14;;;;;;;3.75;1.90;;;;;;;31.48;15.17;99887.00;4986579;28;20143;-71
2022/09/11 09:24:49;;;;;;;5.70;3.10;;;;;;;31.52;14.94;99909.88;4994031;28;20543;-72
2022/09/11 09:27:29;;;;;;;9.52;2.20;;;;;;;31.12;14.86;99897.31;4993850;28;20058;-72
2022/09/11 09:30:00;;;;;;;5.82;1.88;;;;;;;31.12;15.32;99885.81;4994262;28;20042;-72
2022/09/11 09:32:43;;;;;;;5.57;1.80;;;;;;;31.65;14.88;99902.00;4993963;28;20100;-73
2022/09/11 09:35:17;;;;;;;8.10;1.95;;;;;;;30.94;15.19;99883.56;4994194;28;20402;-72
2022/09/11 09:37:44;;;;;;;6.00;2.15;;;;;;;28.88;16.19;99890.44;5000695;28;20120;-73
2022/09/11 09:40:16;;;;;;;4.53;2.00;;;;;;;26.56;18.64;99886.59;5013852;28;20053;-72
2022/09/11 09:43:01;;;;;;;6.93;1.63;;;;;;;25.01;19.82;99888.50;5013744;28;20053;-70
2022/09/11 09:45:47;;;;;;;9.57;5.32;;;;;;;23.76;21.25;99901.50;5013718;28;20049;-73
2022/09/11 09:48:15;;;;;;;5.78;2.88;;;;;;;22.88;22.33;99888.31;5013166;28;20049;-72
2022/09/11 09:50:45;;;;;;;9.52;2.38;;;;;;;22.18;23.25;99913.75;5013511;28;20110;-72
2022/09/11 09:53:26;;;;;;;8.85;2.22;;;;;;;21.45;24.11;99898.06;5012892;28;20080;-72
2022/09/11 09:55:55;;;;;;;6.80;1.92;;;;;;;21.00;24.59;99897.78;5012765;28;20109;-71
2022/09/11 09:58:25;;;;;;;11.98;2.25;;;;;;;20.76;24.93;99904.03;5013554;28;20053;-73
2022/09/11 10:00:52;;;;;;;6.75;1.83;;;;;;;20.44;25.45;99889.66;5013270;28;20102;-73
2022/09/11 10:03:21;;;;;;;6.40;1.83;;;;;;;19.63;26.75;99916.16;4996278;28;20049;-72
2022/09/11 10:05:52;;;;;;;5.80;1.80;;;;;;;19.14;27.45;99913.44;4998211;28;20480;-72
2022/09/11 10:08:34;;;;;;;7.75;2.00;;;;;;;18.91;27.66;99904.22;4993165;28;20046;-72
2022/09/11 10:11:07;;;;;;;3.63;1.73;;;;;;;18.91;27.73;99900.56;4993396;28;20046;-72
2022/09/11 10:13:41;;;;;;;9.70;5.00;;;;;;;18.90;27.79;99913.88;4992994;28;20070;-73
2022/09/11 10:16:25;;;;;;;4.32;1.67;;;;;;;18.77;27.78;99901.16;5002786;28;20092;-73
2022/09/11 10:18:54;;;;;;;6.05;2.03;;;;;;;18.61;28.23;99903.31;5013284;28;20046;-73
2022/09/11 10:21:23;;;;;;;7.90;1.85;;;;;;;18.30;28.29;99906.38;5013145;28;20053;-73
2022/09/11 10:23:51;;;;;;;3.42;1.48;;;;;;;18.17;28.93;99899.28;5012673;28;20049;-72
2022/09/11 10:26:25;;;;;;;2.78;1.50;;;;;;;18.15;29.02;99898.88;5012888;28;20053;-72
2022/09/11 10:28:57;;;;;;;2.83;1.60;;;;;;;18.05;29.23;99899.47;5013029;28;20450;-73
2022/09/11 10:31:25;;;;;;;3.83;2.00;;;;;;;18.03;29.48;99896.22;5012959;28;20517;-67
2022/09/11 10:33:59;;;;;;;4.30;1.65;;;;;;;17.93;29.61;99902.47;5012499;28;20084;-68
2022/09/11 10:36:29;;;;;;;3.53;1.45;;;;;;;17.77;30.27;99888.47;5012726;28;20053;-68
2022/09/11 10:38:58;;;;;;;3.42;2.03;;;;;;;17.80;30.24;99886.94;5012466;28;20038;-69
2022/09/11 10:41:27;;;;;;;3.95;1.60;;;;;;;18.01;30.02;99887.34;5012572;28;20476;-69
2022/09/11 10:44:09;;;;;;;3.23;1.30;;;;;;;18.04;29.99;99887.41;5013036;28;20058;-68
2022/09/11 10:46:38;;;;;;;6.28;1.80;;;;;;;17.89;30.35;99888.31;5012509;28;20503;-73
2022/09/11 10:49:14;;;;;;;11.98;1.70;;;;;;;17.83;30.64;99880.56;5011108;28;20054;-72
2022/09/11 10:51:55;;;;;;;4.57;1.52;;;;;;;17.66;30.78;99876.22;5012441;28;20108;-73
2022/09/11 10:54:33;;;;;;;5.75;1.67;;;;;;;17.66;31.04;99870.59;5012672;28;20137;-71
2022/09/11 10:57:10;;;;;;;5.05;1.85;;;;;;;17.86;30.85;99874.19;5011601;28;20064;-73
2022/09/11 10:59:42;;;;;;;2.47;1.30;;;;;;;17.91;30.81;99882.28;5004156;28;20165;-72
2022/09/11 11:02:27;;;;;;;8.95;1.50;;;;;;;17.87;30.90;99878.63;5012114;28;20054;-73
2022/09/11 11:05:02;;;;;;;9.25;1.85;;;;;;;17.76;31.11;99860.69;5011884;28;20096;-72
2022/09/11 11:07:54;;;;;;;4.15;2.00;;;;;;;17.62;31.37;99868.88;5012337;28;20052;-72
2022/09/11 11:10:55;;;;;;;4.10;1.70;;;;;;;17.49;31.93;99864.56;5014621;28;20052;-73
2022/09/11 11:13:32;;;;;;;8.32;1.80;;;;;;;17.54;31.54;99861.47;5011156;28;20370;-72
2022/09/11 11:16:16;;;;;;;5.03;1.60;;;;;;;17.55;31.62;99861.09;5012713;28;20046;-73
2022/09/11 11:19:10;;;;;;;5.15;2.10;;;;;;;17.53;31.65;99855.03;5007760;28;20052;-73
2022/09/11 11:22:15;;;;;;;9.73;2.78;;;;;;;17.49;31.93;99853.31;5014628;28;20053;-73
2022/09/11 11:24:57;;;;;;;3.25;1.70;;;;;;;17.46;32.12;99868.13;5010384;28;20082;-72
2022/09/11 11:27:35;;;;;;;4.22;1.98;;;;;;;17.37;32.44;99856.25;5014187;28;20068;-72
2022/09/11 11:30:18;;;;;;;4.53;1.67;;;;;;;17.31;32.68;99852.13;5015498;28;20038;-73
2022/09/11 11:32:45;;;;;;;4.68;1.77;;;;;;;17.39;32.63;99843.47;5016071;28;20058;-72
2022/09/11 11:35:28;;;;;;;3.67;1.88;;;;;;;17.59;32.50;99850.72;4998194;28;20050;-73
2022/09/11 11:38:42;;;;;;;3.45;1.90;;;;;;;17.68;32.35;99850.50;5015043;28;20052;-66
2022/09/11 11:41:19;;;;;;;11.30;2.13;;;;;;;17.57;32.64;99844.69;5011247;28;20058;-68
2022/09/11 11:43:48;;;;;;;3.47;1.80;;;;;;;17.39;32.88;99843.47;5013005;28;20050;-67
2022/09/11 11:46:18;;;;;;;2.35;1.38;;;;;;;17.34;32.81;99842.94;5012020;28;20049;-66
2022/09/11 11:49:04;;;;;;;3.70;1.30;;;;;;;17.40;32.99;99841.44;5013668;28;20521;-67
2022/09/11 11:51:43;;;;;;;2.80;1.52;;;;;;;17.38;32.79;99829.78;5013593;28;20049;-67
2022/09/11 11:54:26;;;;;;;5.63;1.60;;;;;;;17.34;32.89;99834.50;5015914;28;20057;-68
2022/09/11 11:56:58;;;;;;;4.10;1.77;;;;;;;17.21;33.00;99831.03;5014793;28;20046;-68
2022/09/11 11:59:43;;;;;;;5.40;1.60;;;;;;;17.21;32.80;99841.47;5013455;28;20060;-69